NCAR-RAP Real-Time Weather Data

Output produced by METARs form (26 May 2022  07:23 UTC)
found at http://weather.rap.ucar.edu/surface/
 
KDSM 260714Z 36006KT 10SM OVC004 13/12 A2970 RMK AO2 T01280122
KDSM 260654Z 02006KT 10SM OVC005 13/12 A2971 RMK AO2 SLP059 T01280122
KDSM 260554Z 01004KT 10SM OVC006 13/12 A2971 RMK AO2 SLP059 60005 T01280122 10133 20128 401390100 50012
KDSM 260454Z 01005KT 10SM OVC006 13/12 A2971 RMK AO2 SLP061 T01280122
KDSM 260354Z 35008KT 10SM OVC007 13/13 A2971 RMK AO2 RAB0259E24 SLP061 P0003 T01330128
KDSM 260254Z 02015G25KT 10SM OVC007 13/12 A2967 RMK AO2 SLP048 60002 T01330122 51008
KDSM 260154Z 01014G22KT 10SM OVC007 13/13 A2967 RMK AO2 CIG 005V009 SLP046 T01330128
KDSM 260054Z 02013KT 10SM OVC006 13/13 A2967 RMK AO2 RAB03E36 CIG 005V009 SLP047 P0002 T01330128
KDSM 260003Z 01017G24KT 7SM -RA BKN006 OVC011 13/13 A2965 RMK AO2 RAB03 CIG 003V010 P0000 T01330128
KDSM 252354Z 01013KT 2SM BKN006 BKN011 OVC017 13/13 A2965 RMK AO2 SFC VIS 7 RAE54 SLP040 P0014 60030 T01330128 10139 20128 56008
KDSM 252350Z 01013KT 2SM -RA BR BKN006 BKN011 OVC017 13/13 A2965 RMK AO2 SFC VIS 5 P0014
KDSM 252339Z 01015G24KT 2SM R31/6000VP6000FT RA BR BKN004 BKN009 OVC017 13/13 A2965 RMK AO2 P0013 T01330133
KDSM 252336Z 01013KT 1 1/4SM R31/4000VP6000FT -RA BR BKN006 OVC010 13/13 A2965 RMK AO2 TWR VIS 2 P0013 T01330133
KDSM 252327Z 01014G22KT 1 3/4SM R31/4000VP6000FT RA BR BKN006 OVC010 13/13 A2966 RMK AO2 TWR VIS 2 P0007 T01330128
KDSM 252324Z 02014KT 2SM -RA BR BKN004 OVC009 13/13 A2967 RMK AO2 SFC VIS 3 CIG 003V006 P0007 T01330133
KDSM 252301Z 36010G19KT 1 1/2SM RA BR OVC004 14/13 A2966 RMK AO2 TWR VIS 2 P0003 T01390133
KDSM 252254Z 01015KT 2SM RA BR OVC005 14/13 A2966 RMK AO2 SLP044 P0005 T01390133
KDSM 252251Z 01011KT 2SM -RA BR OVC005 14/13 A2966 RMK AO2 SFC VIS 3 P0004
KDSM 252154Z 02012G19KT 8SM -RA OVC006 14/13 A2968 RMK AO2 RAE2058B40 SLP049 P0000 T01390133
KDSM 252114Z 02011G19KT 10SM OVC005 14/13 A2970 RMK AO2 RAE2058 CIG 004V009 P0000 T01390133
KDSM 252054Z 01011KT 1 1/2SM -RA BR BKN005 OVC012 14/13 A2971 RMK AO2 SFC VIS 5 CIG 002V009 SLP059 P0005 60011 T01390133 58022
KDSM 251954Z 03010KT 1 1/2SM -RA BR OVC005 13/13 A2974 RMK AO2 SFC VIS 1 3/4 CIG 003V009 SLP071 P0003 T01330128
KDSM 251901Z 03010KT 1 1/2SM -RA BR OVC005 13/13 A2975 RMK AO2 SFC VIS 2 P0000 T01330128
KDSM 251854Z 03009KT 2SM -RA BR OVC005 13/13 A2976 RMK AO2 TWR VIS 2 1/2 SLP076 P0003 T01330128
KDSM 251832Z 02009KT 2 1/2SM -RA BR OVC004 13/13 A2977 RMK AO2 CIG 003V008 P0001 T01280128
KDSM 251754Z 03008KT 2 1/2SM -RA BR OVC005 13/13 A2977 RMK AO2 RAE00B54DZB00E54 SLP082 P0001 60006 T01330128 10133 20106 55007
KDSM 251752Z 03007KT 2 1/2SM -DZ BR OVC005 13/12 A2977 RMK AO2 RAE00DZB00 P0001
KDSM 251654Z 01009KT 5SM -RA BR OVC005 12/12 A2979 RMK AO2 RAB41 SLP090 P0000 T01220117
KDSM 251634Z 02008KT 6SM BR OVC005 12/12 A2979 RMK AO2 T01220117
KDSM 251554Z 02008KT 5SM BR OVC004 12/11 A2980 RMK AO2 DZE47 SLP091 P0000 T01220111
KDSM 251454Z 02007KT 4SM -DZ BR OVC003 12/11 A2981 RMK AO2 RAE48DZB48 SLP095 P0000 60005 T01170111 58008
KDSM 251354Z 04006KT 5SM -RA BR OVC004 11/11 A2982 RMK AO2 SLP099 P0003 T01110106
KDSM 251254Z 05007KT 3SM -RA BR OVC004 11/11 A2983 RMK AO2 SLP102 P0002 T01110106
KDSM 251154Z 07004KT 4SM -RA BR OVC004 11/11 A2983 RMK AO2 DZB27E53RAB53 SLP103 P0000 60012 70097 T01060106 10106 20100 55004
KDSM 251054Z 07006KT 6SM BR OVC004 11/10 A2982 RMK AO2 RAE03DZB03E52 SLP098 P0001 T01060100
KDSM 250954Z 07007KT 3SM -RA BR OVC004 10/10 A2983 RMK AO2 SLP102 P0006 T01000100
KDSM 250922Z 06009KT 2 1/2SM -RA BR OVC004 10/10 A2984 RMK AO2 CIG 002V008 P0002 T01000100
KDSM 250906Z 07007KT 2SM -RA BR OVC005 10/10 A2984 RMK AO2 P0001 T01000100
KDSM 250854Z 07008G18KT 7SM -RA OVC005 10/10 A2984 RMK AO2 DZE12B42E46RAB12 SLP107 P0000 60005 T01000100 56020
KDSM 250754Z 07011G21KT 6SM -DZ BR OVC006 10/09 A2985 RMK AO2 RAE53DZB53 SLP110 P0001 T01000094
KDSM 250654Z 07014G24KT 3SM -RA BR BKN006 OVC010 11/09 A2988 RMK AO2 PK WND 07027/0610 SLP118 P0004 T01060094
KDSM 250554Z 06017G25KT 3SM -RA BR BKN007 OVC014 11/10 A2990 RMK AO2 SLP126 P0003 60051 T01060100 10111 20106 401390100 58024
KDSM 250511Z 05017G24KT 3SM -RA BR SCT008 BKN028 OVC032 11/10 A2993 RMK AO2 P0001 T01110100
KDSM 250454Z 05014G22KT 3SM -RA BR FEW008 BKN030 OVC043 11/10 A2994 RMK AO2 SLP139 P0013 T01110100
KDSM 250448Z 05015G22KT 3SM -RA BR SCT008 BKN031 OVC041 11/10 A2994 RMK AO2 P0012
KDSM 250426Z 05013G20KT 2 1/2SM RA BR FEW008 BKN029 OVC036 11/11 A2996 RMK AO2 P0007 T01110106
KDSM 250410Z 06011G22KT 4SM -RA BR SCT008 BKN028 OVC035 11/11 A2997 RMK AO2 P0002 T01110106
KDSM 250354Z 05012KT 4SM -RA BR FEW011 OVC037 11/11 A2997 RMK AO2 SLP148 P0006 T01110106
KDSM 250322Z 05014KT 4SM -RA BR FEW009 OVC039 11/11 A2997 RMK AO2 P0004 T01110106
KDSM 250254Z 04010KT 4SM -RA BR FEW013 OVC043 11/11 A2998 RMK AO2 SLP151 P0009 60029 T01110106 55001
KDSM 250228Z 04013G21KT 4SM -RA BR FEW011 BKN049 OVC060 11/10 A2997 RMK AO2 P0006 T01110100
KDSM 250221Z 05014G21KT 2 1/2SM -RA BR SCT011 OVC050 11/10 A2997 RMK AO2 SFC VIS 4 P0005 T01110100
KDSM 250208Z 05012KT 2 1/2SM -RA BR SCT009 BKN016 OVC048 11/10 A2997 RMK AO2 SFC VIS 4 P0003 T01110100
KDSM 250154Z 05013G24KT 2 1/2SM RA BR SCT013 BKN042 OVC050 11/10 A2996 RMK AO2 PK WND 05027/0059 SFC VIS 4 RAE05B24 SLP147 P0012 T01110100
KDSM 250131Z 05013G17KT 2 1/2SM RA BR BKN012 OVC048 11/10 A2997 RMK AO2 PK WND 05027/0059 SFC VIS 4 RAE05B24 P0002 T01110100
KDSM 250054Z 04017G25KT 2 1/2SM -RA BR FEW008 OVC050 11/10 A2994 RMK AO2 SFC VIS 3 SLP140 P0008 T01060100
KDSM 250025Z 04015G24KT 2 1/2SM -RA BR SCT008 SCT012 OVC049 11/10 A2996 RMK AO2 SFC VIS 3 P0006 T01060100
KDSM 250010Z 03012KT 2 1/2SM RA BR BKN008 BKN012 OVC047 11/09 A2998 RMK AO2 TWR VIS 3 CIG 005V011 P0002 T01060094
KDSM 250002Z 04014KT 3SM -RA BR BKN008 BKN012 OVC048 11/09 A2997 RMK AO2 SFC VIS 4 CIG 005V011 P0001 T01060094
KDSM 242354Z 03009G22KT 3SM -RA BR SCT008 SCT011 OVC048 11/10 A2998 RMK AO2 SFC VIS 4 SLP153 P0009 60034 T01060100 10139 20106 56023
KDSM 242256Z 04012G22KT 3SM RA BR FEW009 BKN055 OVC085 11/09 A3000 RMK AO2 P0000 T01060094
KDSM 242254Z 04014G22KT 2SM RA BR FEW011 BKN055 OVC085 11/09 A3000 RMK AO2 SFC VIS 4 SLP159 P0016 T01060094
KDSM 242239Z 04012G21KT 2SM RA BR FEW003 BKN055 OVC065 11/09 A3001 RMK AO2 P0012 T01060094
KDSM 242231Z 04013G21KT 1 3/4SM +RA BR BKN055 OVC070 11/09 A3001 RMK AO2 P0007 T01060094
KDSM 242154Z 05015G22KT 7SM -RA SCT070 OVC095 12/09 A3002 RMK AO2 SLP166 P0004 T01170094
KDSM 242054Z 04010KT 5SM -RA BR FEW055 BKN080 OVC095 12/09 A3005 RMK AO2 SLP177 P0005 60005 T01170094 58024
KDSM 241954Z 05011KT 7SM -RA OVC060 12/09 A3008 RMK AO2 SLP186 P0000 T01220089
KDSM 241854Z 06008G18KT 10SM -RA BKN070 OVC085 13/08 A3010 RMK AO2 SLP192 P0000 T01280078
KDSM 241754Z 10006KT 10SM -RA BKN065 OVC080 14/07 A3012 RMK AO2 RAE24B51 SLP199 P0000 60000 T01390067 10139 20117 56007
KDSM 241654Z 09008KT 10SM -RA FEW060 BKN080 OVC110 13/05 A3013 RMK AO2 RAB00E12B28 SLP202 P0000 T01330050
KDSM 241554Z 09010KT 10SM OVC070 13/03 A3013 RMK AO2 SLP204 T01330028
KDSM 241454Z 10009G17KT 10SM OVC075 13/03 A3014 RMK AO2 SLP207 T01280028 58001
KDSM 241354Z 09008KT 10SM BKN060 OVC075 13/04 A3015 RMK AO2 SLP210 T01280039
KDSM 241254Z 09007KT 10SM BKN060 OVC080 12/04 A3015 RMK AO2 SLP210 T01220044
KDSM 241154Z 08007KT 10SM FEW060 FEW080 OVC090 12/05 A3015 RMK AO2 SLP208 T01170050 10122 20100 53001
KDSM 241054Z 08006KT 10SM OVC110 11/04 A3014 RMK AO2 SLP206 T01060039
KDSM 240954Z 08008KT 10SM SCT110 BKN200 11/03 A3014 RMK AO2 SLP206 T01060028
KDSM 240854Z 08006KT 10SM BKN120 BKN200 11/02 A3014 RMK AO2 SLP206 T01110022 56013
KDSM 240754Z 07006KT 10SM FEW140 11/02 A3015 RMK AO2 SLP209 T01110017